Time;durP1;ratioP1;P1;durP2;ratioP2;P2;SDS_P1;SDS_P2;PMS_P1;PMS_P2;Temp;Humidity;BMP_temperature;BMP_pressure;BME280_temperature;BME280_humidity;BME280_pressure;Samples;Min_cycle;Max_cycle;Signal;HPM_P1;HPM_P2
2021/04/28 08:38:14;;;;;;;11.02;6.30;;;;;;;16.77;36.01;95494.34;6082279;23;20030;-82
2021/04/28 08:40:41;;;;;;;13.55;6.85;;;;;;;16.92;35.79;95500.84;6082819;23;20051;-87
2021/04/28 08:43:07;;;;;;;8.02;6.90;;;;;;;17.07;35.84;95495.72;6083560;23;20042;-85
2021/04/28 08:45:34;;;;;;;15.02;7.57;;;;;;;17.23;35.30;95491.34;6083283;23;20070;-83
2021/04/28 08:48:01;;;;;;;14.20;7.35;;;;;;;17.35;35.17;95476.19;6054922;23;20019;-85
2021/04/28 08:50:28;;;;;;;8.88;6.68;;;;;;;17.52;34.83;95486.59;6053571;23;20035;-83
2021/04/28 08:52:55;;;;;;;9.57;6.78;;;;;;;17.66;34.29;95482.47;6055513;23;20098;-81
2021/04/28 08:55:23;;;;;;;10.98;7.20;;;;;;;17.77;34.60;95479.91;6066074;23;20026;-83
2021/04/28 08:57:49;;;;;;;8.68;6.10;;;;;;;17.95;33.36;95481.34;6066437;23;20011;-83
2021/04/28 09:00:18;;;;;;;13.27;6.43;;;;;;;18.09;33.04;95483.28;6066555;23;20040;-83
2021/04/28 09:02:52;;;;;;;11.27;6.78;;;;;;;18.25;32.27;95480.72;6066129;23;20037;-82
2021/04/28 09:05:19;;;;;;;13.32;5.72;;;;;;;18.42;32.21;95476.03;6065839;23;20031;-81
2021/04/28 09:07:46;;;;;;;12.65;6.68;;;;;;;18.58;32.35;95473.44;6065904;23;20030;-84
2021/04/28 09:10:15;;;;;;;9.70;6.72;;;;;;;18.73;31.74;95481.41;6065965;23;20047;-85
2021/04/28 09:12:51;;;;;;;8.45;6.40;;;;;;;18.82;31.73;95473.78;6066462;23;20078;-83
2021/04/28 09:15:32;;;;;;;11.68;6.70;;;;;;;18.95;31.96;95462.72;6065716;23;20071;-83
2021/04/28 09:17:59;;;;;;;11.00;6.05;;;;;;;19.12;32.03;95473.06;6064924;23;20027;-86
2021/04/28 09:20:29;;;;;;;10.05;6.35;;;;;;;19.28;31.53;95469.34;6057387;23;20031;-86
2021/04/28 09:23:12;;;;;;;10.63;5.75;;;;;;;19.46;31.82;95467.22;6056785;23;20019;-87
2021/04/28 09:25:44;;;;;;;11.00;6.00;;;;;;;19.63;31.20;95466.97;6056883;23;20034;-84
2021/04/28 09:28:29;;;;;;;7.72;5.82;;;;;;;19.72;30.69;95471.47;6057347;23;20670;-87
2021/04/28 09:31:14;;;;;;;8.60;6.70;;;;;;;19.79;30.77;95459.81;6054819;23;20020;-85
2021/04/28 09:33:51;;;;;;;14.38;6.43;;;;;;;19.86;30.46;95465.63;6056836;23;20029;-87
2021/04/28 09:36:26;;;;;;;9.50;6.03;;;;;;;19.92;30.38;95467.22;6056287;23;20075;-87
2021/04/28 09:38:55;;;;;;;18.83;7.43;;;;;;;20.00;30.18;95449.97;6057401;23;20034;-84
2021/04/28 09:41:39;;;;;;;9.88;6.18;;;;;;;20.13;30.19;95452.06;6054910;23;20575;-88
2021/04/28 09:44:28;;;;;;;21.98;7.20;;;;;;;20.25;29.93;95446.47;6056289;23;20046;-87
2021/04/28 09:47:08;;;;;;;8.55;6.20;;;;;;;20.34;29.78;95444.84;6064206;23;20023;-86
2021/04/28 09:49:53;;;;;;;9.45;6.30;;;;;;;20.46;29.91;95452.44;6065976;23;20015;-84
2021/04/28 09:52:23;;;;;;;9.68;6.32;;;;;;;20.58;29.49;95452.94;6059375;23;20071;-83
2021/04/28 09:54:52;;;;;;;8.70;5.85;;;;;;;20.70;29.55;95447.31;6061371;23;20007;-81
2021/04/28 09:57:32;;;;;;;9.60;6.13;;;;;;;20.82;29.60;95444.34;6065893;23;20011;-82
2021/04/28 10:00:00;;;;;;;10.85;6.03;;;;;;;20.90;29.18;95451.69;6066163;23;20043;-84
2021/04/28 10:02:29;;;;;;;9.32;6.13;;;;;;;20.98;29.35;95436.00;6066057;23;20027;-86
2021/04/28 10:05:21;;;;;;;8.38;6.93;;;;;;;21.06;29.46;95439.94;6064918;23;20015;-85
2021/04/28 10:08:06;;;;;;;11.30;5.93;;;;;;;21.11;28.84;95429.28;6060587;23;20019;-85
2021/04/28 10:10:38;;;;;;;8.10;6.20;;;;;;;21.25;29.19;95436.59;6057846;23;20019;-88
2021/04/28 10:13:04;;;;;;;8.07;6.15;;;;;;;21.35;28.62;95429.34;6059582;23;20042;-82
2021/04/28 10:15:32;;;;;;;13.32;7.05;;;;;;;21.40;28.27;95429.28;6059296;23;20083;-85
2021/04/28 10:18:02;;;;;;;9.20;5.68;;;;;;;21.52;28.73;95433.50;6057838;23;20016;-83
2021/04/28 10:20:32;;;;;;;9.60;6.63;;;;;;;21.69;28.17;95425.09;6056821;23;20088;-85
2021/04/28 10:23:04;;;;;;;11.68;5.95;;;;;;;21.79;27.48;95425.78;6056748;23;20047;-87
2021/04/28 10:25:35;;;;;;;10.00;6.25;;;;;;;21.89;27.35;95429.41;6054733;23;20023;-85
2021/04/28 10:28:11;;;;;;;8.13;7.15;;;;;;;21.92;27.08;95420.88;6054190;23;20038;-88
2021/04/28 10:30:50;;;;;;;76.93;11.20;;;;;;;21.95;27.26;95423.75;6055968;23;20737;-90
2021/04/28 10:33:20;;;;;;;22.23;6.53;;;;;;;22.03;28.70;95425.00;6052397;23;20052;-80
2021/04/28 10:35:51;;;;;;;11.25;6.32;;;;;;;22.19;27.44;95426.41;6057556;23;20416;-90
2021/04/28 10:38:27;;;;;;;18.40;7.30;;;;;;;22.32;26.53;95426.81;6029114;23;20023;-87
2021/04/28 10:40:57;;;;;;;12.48;5.82;;;;;;;22.35;26.58;95427.03;6030857;23;20019;-87
2021/04/28 10:43:35;;;;;;;14.00;6.13;;;;;;;22.33;26.30;95423.09;6039033;23;20034;-85
2021/04/28 10:46:22;;;;;;;9.52;6.70;;;;;;;22.29;26.24;95422.84;6037383;23;20044;-87
2021/04/28 10:49:20;;;;;;;9.20;5.70;;;;;;;22.24;26.90;95414.16;6033765;23;20083;-85
2021/04/28 10:51:50;;;;;;;11.15;6.32;;;;;;;22.32;26.62;95411.66;6029729;23;20091;-87
2021/04/28 10:54:26;;;;;;;11.98;7.38;;;;;;;22.31;25.15;95420.72;6029076;23;20055;-85
2021/04/28 10:57:02;;;;;;;9.05;6.80;;;;;;;22.24;25.30;95419.47;6028568;23;20020;-87
2021/04/28 10:59:41;;;;;;;18.67;7.03;;;;;;;22.21;25.46;95405.66;6037908;23;20083;-84
2021/04/28 11:02:11;;;;;;;15.48;6.30;;;;;;;22.26;25.80;95406.69;6038446;23;20011;-86
2021/04/28 11:04:38;;;;;;;7.30;6.38;;;;;;;22.36;25.96;95402.03;6032154;23;20046;-85
2021/04/28 11:07:07;;;;;;;17.63;7.40;;;;;;;22.52;25.85;95402.63;6029021;23;20094;-84
2021/04/28 11:09:34;;;;;;;14.32;6.57;;;;;;;22.64;26.40;95404.84;6028855;23;20043;-87
2021/04/28 11:12:02;;;;;;;11.43;6.50;;;;;;;22.82;25.56;95404.03;6028054;23;20079;-88
2021/04/28 11:14:37;;;;;;;11.05;7.18;;;;;;;22.96;24.97;95392.69;6027262;23;20075;-83
2021/04/28 11:17:27;;;;;;;11.05;5.68;;;;;;;23.16;25.47;95408.34;6026491;23;20385;-86
2021/04/28 11:20:22;;;;;;;12.80;6.80;;;;;;;23.36;25.02;95401.13;6022330;23;20019;-84
2021/04/28 11:22:50;;;;;;;14.30;6.68;;;;;;;23.45;24.35;95400.16;6026155;23;20111;-84
2021/04/28 11:25:19;;;;;;;16.73;7.65;;;;;;;23.38;23.65;95406.94;6025726;23;20473;-84
2021/04/28 11:28:03;;;;;;;12.25;7.13;;;;;;;23.44;24.17;95401.25;6024946;23;20019;-84
2021/04/28 11:30:33;;;;;;;8.93;6.07;;;;;;;23.55;24.09;95393.06;6027256;23;20048;-87
2021/04/28 11:33:19;;;;;;;8.95;5.65;;;;;;;23.63;24.64;95395.03;6026161;23;20023;-86
2021/04/28 11:36:17;;;;;;;27.80;8.65;;;;;;;23.76;23.89;95393.50;6026588;23;20107;-87
2021/04/28 11:38:52;;;;;;;28.58;7.50;;;;;;;23.87;23.85;95391.44;6054528;23;20079;-87
2021/04/28 11:41:26;;;;;;;10.30;6.45;;;;;;;23.99;23.91;95387.22;6055142;23;20026;-87
2021/04/28 11:43:57;;;;;;;13.82;6.72;;;;;;;24.05;23.10;95396.69;6054762;23;20069;-86
2021/04/28 11:46:28;;;;;;;8.82;6.05;;;;;;;23.98;23.37;95392.81;6063237;23;20055;-88
2021/04/28 11:49:02;;;;;;;17.88;7.25;;;;;;;23.91;23.28;95395.09;6064985;23;20003;-87
2021/04/28 11:51:32;;;;;;;20.52;6.93;;;;;;;23.78;23.83;95408.09;6062740;23;20026;-87
2021/04/28 11:54:04;;;;;;;11.32;7.35;;;;;;;23.49;23.95;95404.91;6057382;23;20042;-87
2021/04/28 11:56:44;;;;;;;9.55;6.50;;;;;;;23.21;24.05;95389.66;6055141;23;20019;-86
2021/04/28 11:59:20;;;;;;;9.70;6.57;;;;;;;23.17;24.38;95385.97;6054363;23;20023;-89
2021/04/28 12:01:48;;;;;;;13.18;6.65;;;;;;;23.18;24.53;95392.13;6053668;23;20103;-85
2021/04/28 12:04:15;;;;;;;47.38;10.52;;;;;;;23.13;24.32;95381.53;6053882;23;20061;-83
2021/04/28 12:06:43;;;;;;;17.30;8.18;;;;;;;23.01;24.68;95382.00;6053914;23;20030;-84
2021/04/28 12:09:23;;;;;;;28.00;8.73;;;;;;;22.91;24.90;95390.88;6053754;23;20030;-84
2021/04/28 12:12:07;;;;;;;8.90;6.57;;;;;;;22.57;25.17;95386.63;6053614;23;20046;-83
2021/04/28 12:14:34;;;;;;;7.88;6.22;;;;;;;22.26;25.23;95380.13;6053239;23;20019;-83
2021/04/28 12:17:02;;;;;;;11.35;6.72;;;;;;;22.14;25.49;95383.19;6053457;23;20071;-85
2021/04/28 12:19:37;;;;;;;9.20;6.78;;;;;;;22.00;25.47;95391.06;6052809;23;20071;-83
2021/04/28 12:22:07;;;;;;;8.88;6.32;;;;;;;21.85;25.73;95383.25;6055236;23;20023;-84
2021/04/28 12:24:39;;;;;;;14.93;6.03;;;;;;;21.79;25.95;95390.47;6055678;23;20023;-85
2021/04/28 12:27:15;;;;;;;19.50;7.65;;;;;;;21.79;25.37;95388.59;6055627;23;20049;-83
2021/04/28 12:29:44;;;;;;;12.63;7.22;;;;;;;21.74;25.31;95380.72;6055083;23;20030;-84
2021/04/28 12:32:14;;;;;;;10.73;7.10;;;;;;;21.60;24.98;95382.44;6054485;23;20039;-83
2021/04/28 12:35:05;;;;;;;11.25;6.82;;;;;;;21.43;24.59;95390.03;6054849;23;20038;-85
2021/04/28 12:37:34;;;;;;;11.07;6.78;;;;;;;21.25;24.58;95373.72;6053390;23;20026;-83
2021/04/28 12:40:04;;;;;;;13.18;6.20;;;;;;;21.17;25.01;95387.63;6054612;23;20023;-83
2021/04/28 12:42:32;;;;;;;12.32;5.95;;;;;;;21.07;25.28;95374.44;6055298;23;20076;-85
2021/04/28 12:45:03;;;;;;;10.90;5.78;;;;;;;20.94;25.42;95375.84;6054006;23;20023;-84
2021/04/28 12:47:41;;;;;;;9.85;6.72;;;;;;;20.90;25.61;95372.19;6054422;23;20114;-82
2021/04/28 12:50:18;;;;;;;10.88;7.28;;;;;;;20.83;26.28;95374.34;6054232;23;20040;-83
2021/04/28 12:52:48;;;;;;;9.05;6.40;;;;;;;20.69;26.58;95376.84;6054581;23;20027;-85
2021/04/28 12:55:33;;;;;;;10.73;7.40;;;;;;;20.52;27.51;95372.69;6056311;23;20058;-92
2021/04/28 12:58:14;;;;;;;14.00;7.13;;;;;;;20.40;27.19;95358.19;6053509;23;20080;-81
2021/04/28 13:00:43;;;;;;;21.52;7.43;;;;;;;20.35;27.44;95364.31;6053146;23;20052;-84
2021/04/28 13:03:17;;;;;;;11.55;7.30;;;;;;;20.20;27.82;95361.75;6052696;23;20023;-82
2021/04/28 13:05:55;;;;;;;13.98;7.65;;;;;;;20.11;28.71;95366.81;6052200;23;20023;-80
2021/04/28 13:08:34;;;;;;;11.70;7.45;;;;;;;20.03;28.85;95367.38;6053924;23;20019;-84
2021/04/28 13:11:10;;;;;;;11.95;7.60;;;;;;;19.87;29.37;95371.94;6054148;23;20019;-82
2021/04/28 13:13:44;;;;;;;29.48;8.60;;;;;;;19.75;29.31;95364.31;6051902;23;20102;-81
2021/04/28 13:16:35;;;;;;;13.43;8.00;;;;;;;19.67;29.53;95370.91;6050754;23;20523;-82
2021/04/28 13:19:10;;;;;;;10.90;6.88;;;;;;;19.53;29.99;95361.97;6052165;23;20019;-85
2021/04/28 13:21:41;;;;;;;14.10;7.90;;;;;;;19.47;30.19;95355.09;6052185;23;20023;-81
2021/04/28 13:24:11;;;;;;;9.50;6.55;;;;;;;19.41;30.37;95354.31;6052741;23;20023;-82
2021/04/28 13:26:42;;;;;;;13.48;8.02;;;;;;;19.31;29.96;95352.50;6053023;23;20038;-82
2021/04/28 13:29:11;;;;;;;16.17;7.55;;;;;;;19.25;29.92;95348.28;6052819;23;20026;-84
2021/04/28 13:31:42;;;;;;;11.10;7.30;;;;;;;19.23;30.15;95339.81;6050950;23;20021;-81
2021/04/28 13:34:24;;;;;;;14.43;7.53;;;;;;;19.20;30.35;95343.00;6049700;23;20032;-81
2021/04/28 13:36:53;;;;;;;10.18;6.80;;;;;;;19.15;30.48;95340.34;6051521;23;20464;-81
2021/04/28 13:39:28;;;;;;;12.48;7.72;;;;;;;19.10;29.89;95329.78;6052040;23;20023;-82
2021/04/28 13:41:58;;;;;;;12.73;7.35;;;;;;;19.04;30.48;95338.78;6053241;23;20079;-81
2021/04/28 13:44:28;;;;;;;14.80;6.88;;;;;;;19.06;29.87;95331.38;6052293;23;20023;-82
2021/04/28 13:46:57;;;;;;;17.30;7.35;;;;;;;19.07;29.97;95332.97;6053941;23;20075;-81
2021/04/28 13:49:25;;;;;;;11.95;6.63;;;;;;;19.11;30.15;95334.00;6052649;23;20023;-80
2021/04/28 13:51:55;;;;;;;9.48;6.18;;;;;;;19.17;30.24;95330.31;6052297;23;20102;-84
2021/04/28 13:54:24;;;;;;;19.40;7.50;;;;;;;19.20;30.29;95321.84;6051788;23;20078;-82
2021/04/28 13:56:52;;;;;;;39.30;9.27;;;;;;;19.20;29.69;95326.31;6053192;23;20650;-83
2021/04/28 13:59:20;;;;;;;17.27;7.30;;;;;;;19.17;29.41;95327.66;6052651;23;20102;-86
2021/04/28 14:01:47;;;;;;;12.93;7.05;;;;;;;19.08;29.45;95318.69;6053494;23;20027;-81
2021/04/28 14:04:20;;;;;;;19.35;8.23;;;;;;;19.08;29.65;95323.97;6053657;23;20034;-80
2021/04/28 14:06:46;;;;;;;;;;;;;;;19.13;29.89;95316.84;6053365;23;20027;-85
2021/04/28 14:09:18;;;;;;;19.45;6.60;;;;;;;19.26;30.36;95319.97;6051815;23;19928;-83
2021/04/28 14:11:45;;;;;;;11.25;6.20;;;;;;;19.38;28.54;95311.78;6051163;23;20102;-82
2021/04/28 14:14:12;;;;;;;9.90;4.85;;;;;;;19.46;28.99;95313.84;6051760;23;20084;-82
2021/04/28 14:16:39;;;;;;;16.90;6.00;;;;;;;19.51;28.77;95316.50;6053487;23;20023;-83
2021/04/28 14:19:06;;;;;;;8.43;5.97;;;;;;;19.55;28.65;95301.66;6055335;23;20023;-81
2021/04/28 14:21:33;;;;;;;10.20;5.20;;;;;;;19.59;27.88;95307.19;6054641;23;20042;-84
2021/04/28 14:24:04;;;;;;;7.15;5.20;;;;;;;19.51;27.74;95305.91;6054447;23;20023;-82
2021/04/28 14:26:33;;;;;;;12.85;4.82;;;;;;;19.51;28.01;95306.69;6055401;23;20023;-81
2021/04/28 14:29:02;;;;;;;15.43;6.07;;;;;;;19.57;28.81;95299.53;6054826;23;20356;-89
2021/04/28 14:31:29;;;;;;;7.75;4.47;;;;;;;19.61;28.52;95289.97;6056096;23;20023;-85
2021/04/28 14:33:56;;;;;;;12.65;5.47;;;;;;;19.59;28.72;95286.84;6057336;23;20374;-84
2021/04/28 14:36:23;;;;;;;11.93;5.50;;;;;;;19.60;28.51;95287.63;6056376;23;20021;-84
2021/04/28 14:38:49;;;;;;;15.10;5.20;;;;;;;19.60;28.57;95282.34;6061596;23;20071;-86
2021/04/28 14:41:16;;;;;;;41.17;8.70;;;;;;;19.58;28.64;95279.94;6058983;23;20061;-88
2021/04/28 14:43:49;;;;;;;37.75;8.07;;;;;;;19.60;28.34;95277.84;6058985;23;20031;-83
2021/04/28 14:46:16;;;;;;;7.32;4.53;;;;;;;19.63;28.38;95276.50;6059845;23;20037;-84
2021/04/28 14:48:46;;;;;;;10.77;4.65;;;;;;;19.67;28.18;95278.31;6059768;23;20015;-85
2021/04/28 14:51:22;;;;;;;6.40;3.90;;;;;;;19.71;28.07;95268.81;6059592;23;19999;-83
2021/04/28 14:54:06;;;;;;;17.80;4.82;;;;;;;19.79;27.99;95279.88;6059326;23;20030;-86
2021/04/28 14:56:37;;;;;;;10.13;4.20;;;;;;;19.82;27.63;95263.47;6058762;23;20034;-83
2021/04/28 14:59:11;;;;;;;10.35;4.38;;;;;;;19.81;28.05;95267.19;6059105;23;20050;-82
2021/04/28 15:01:39;;;;;;;8.57;3.92;;;;;;;19.79;27.83;95269.31;6057991;23;20495;-84
2021/04/28 15:04:20;;;;;;;7.13;3.00;;;;;;;19.78;27.81;95265.09;6056992;23;20094;-83
2021/04/28 15:06:54;;;;;;;13.75;4.30;;;;;;;19.78;28.08;95265.09;6060134;23;20023;-85
2021/04/28 15:09:25;;;;;;;11.35;2.95;;;;;;;19.81;27.63;95252.13;6060462;23;20023;-83
2021/04/28 15:11:58;;;;;;;9.10;3.30;;;;;;;19.85;27.50;95254.97;6059206;23;20106;-82
2021/04/28 15:14:28;;;;;;;5.78;3.13;;;;;;;19.90;27.91;95254.97;6057449;23;20026;-82
2021/04/28 15:17:01;;;;;;;27.80;4.57;;;;;;;19.94;27.30;95255.97;6058487;23;20023;-86
2021/04/28 15:19:40;;;;;;;8.82;3.90;;;;;;;19.96;26.87;95256.50;6056990;23;20461;-82
2021/04/28 15:22:10;;;;;;;7.53;3.88;;;;;;;19.97;26.74;95255.47;6057691;23;20015;-83
2021/04/28 15:24:47;;;;;;;8.45;3.60;;;;;;;19.97;26.89;95260.75;6067249;23;20018;-88
2021/04/28 15:27:26;;;;;;;9.63;3.50;;;;;;;19.95;26.71;95252.28;6067109;23;20034;-87
2021/04/28 15:29:55;;;;;;;5.47;3.95;;;;;;;19.96;26.81;95251.22;6066025;23;20029;-91
2021/04/28 15:32:27;;;;;;;10.73;4.18;;;;;;;20.00;26.85;95254.13;6062804;23;20051;-88
2021/04/28 15:34:54;;;;;;;11.88;4.15;;;;;;;20.00;26.90;95248.81;6062339;23;20019;-86
2021/04/28 15:37:20;;;;;;;19.70;4.85;;;;;;;20.01;27.09;95253.06;6061946;23;20153;-84
2021/04/28 15:39:47;;;;;;;6.65;3.63;;;;;;;20.01;27.11;95256.50;6062822;23;20011;-87
2021/04/28 15:42:17;;;;;;;5.30;4.05;;;;;;;19.99;27.14;95257.84;6061632;23;20023;-84
2021/04/28 15:44:44;;;;;;;5.72;3.85;;;;;;;19.97;27.65;95247.50;6063025;23;20075;-87
2021/04/28 15:47:12;;;;;;;8.18;3.85;;;;;;;19.93;27.87;95249.13;6066768;23;20007;-86
2021/04/28 15:49:39;;;;;;;6.80;4.43;;;;;;;19.90;27.95;95249.69;6065866;23;20027;-86
2021/04/28 15:52:07;;;;;;;5.18;3.75;;;;;;;19.87;28.05;95245.72;6065087;23;20014;-88
2021/04/28 15:54:33;;;;;;;6.57;4.30;;;;;;;19.85;28.57;95244.41;6066869;23;20023;-86
2021/04/28 15:57:06;;;;;;;15.73;4.72;;;;;;;19.83;28.91;95238.59;6064589;23;20023;-88
2021/04/28 15:59:39;;;;;;;12.05;4.13;;;;;;;19.80;28.64;95239.16;6061699;23;20410;-86
2021/04/28 16:02:06;;;;;;;9.43;4.50;;;;;;;19.78;29.01;95235.97;6062048;23;20030;-85
2021/04/28 16:04:38;;;;;;;8.50;4.13;;;;;;;19.75;28.77;95238.09;6062230;23;20022;-85
2021/04/28 16:07:07;;;;;;;7.05;3.60;;;;;;;19.74;28.79;95231.25;6061939;23;20019;-84
2021/04/28 16:09:39;;;;;;;8.85;4.43;;;;;;;19.73;28.74;95239.44;6061305;23;20052;-84
2021/04/28 16:12:06;;;;;;;9.32;4.47;;;;;;;19.73;28.62;95239.44;6060995;23;20007;-82
2021/04/28 16:14:33;;;;;;;6.97;4.18;;;;;;;19.70;28.85;95229.41;6058405;23;20031;-88
2021/04/28 16:17:00;;;;;;;5.53;3.88;;;;;;;19.68;29.09;95227.00;6055738;23;20019;-85
2021/04/28 16:19:27;;;;;;;42.88;5.65;;;;;;;19.65;28.67;95222.25;6056076;23;20394;-85
2021/04/28 16:21:55;;;;;;;10.43;4.30;;;;;;;19.61;29.10;95226.50;6054776;23;20027;-85
2021/04/28 16:24:25;;;;;;;5.40;3.72;;;;;;;19.59;28.81;95228.66;6057295;23;20393;-82
2021/04/28 16:26:54;;;;;;;7.63;4.40;;;;;;;19.55;28.89;95217.03;6058890;23;20412;-83
2021/04/28 16:29:34;;;;;;;4.90;3.60;;;;;;;19.50;28.75;95223.13;6059177;23;20019;-86
2021/04/28 16:32:01;;;;;;;7.85;4.28;;;;;;;19.44;28.75;95212.81;6057185;23;20074;-86
2021/04/28 16:34:32;;;;;;;9.13;4.40;;;;;;;19.38;28.80;95221.88;6057515;23;20026;-82
2021/04/28 16:37:01;;;;;;;5.38;3.85;;;;;;;19.37;29.18;95218.41;6059391;23;20027;-89
2021/04/28 16:39:37;;;;;;;8.88;4.30;;;;;;;19.38;28.94;95213.94;6062108;23;20035;-87
2021/04/28 16:42:14;;;;;;;7.95;3.58;;;;;;;19.35;29.00;95218.69;6061967;23;20014;-86
2021/04/28 16:44:46;;;;;;;8.05;4.80;;;;;;;19.32;28.78;95213.16;6063368;23;20031;-86
2021/04/28 16:47:18;;;;;;;10.95;4.55;;;;;;;19.26;28.98;95219.53;6062740;23;20019;-88
2021/04/28 16:49:45;;;;;;;8.63;4.30;;;;;;;19.21;29.11;95216.91;6062992;23;20019;-86
2021/04/28 16:52:16;;;;;;;8.57;4.45;;;;;;;19.15;29.21;95216.13;6062724;23;20066;-86
2021/04/28 16:54:46;;;;;;;5.63;4.45;;;;;;;19.09;29.49;95211.94;6063039;23;20019;-87
2021/04/28 16:57:19;;;;;;;6.88;4.75;;;;;;;19.06;29.52;95215.09;6062818;23;20617;-86
2021/04/28 16:59:47;;;;;;;6.82;4.85;;;;;;;19.02;29.68;95203.47;6062184;23;20038;-86
2021/04/28 17:02:14;;;;;;;9.10;4.90;;;;;;;18.99;29.67;95206.66;6060034;23;20027;-83
2021/04/28 17:04:46;;;;;;;8.27;4.93;;;;;;;18.96;30.19;95209.84;6058503;23;20024;-86
2021/04/28 17:07:23;;;;;;;9.52;4.93;;;;;;;18.91;30.30;95208.00;6057291;23;20092;-84
2021/04/28 17:09:55;;;;;;;6.20;4.60;;;;;;;18.86;30.27;95205.38;6057488;23;20023;-84
2021/04/28 17:12:31;;;;;;;9.00;4.75;;;;;;;18.81;30.42;95202.75;6058594;23;20075;-81
2021/04/28 17:14:59;;;;;;;8.75;5.05;;;;;;;18.74;30.45;95203.78;6056421;23;20030;-82
2021/04/28 17:17:33;;;;;;;7.32;4.60;;;;;;;18.71;30.75;95201.66;6056349;23;20023;-83
2021/04/28 17:20:02;;;;;;;;;;;;;;;18.69;30.60;95195.88;6056108;23;20030;-82
2021/04/28 17:22:35;;;;;;;10.48;5.63;;;;;;;18.62;30.86;95189.28;6057203;23;19917;-80
2021/04/28 17:25:08;;;;;;;8.43;5.32;;;;;;;18.58;31.01;95193.50;6054384;23;20027;-83
2021/04/28 17:27:40;;;;;;;8.93;5.38;;;;;;;18.55;31.13;95194.06;6055318;23;20034;-82
2021/04/28 17:30:28;;;;;;;7.97;5.07;;;;;;;18.49;31.36;95191.41;6055129;23;20015;-81
2021/04/28 17:32:59;;;;;;;7.53;5.28;;;;;;;18.45;31.25;95195.63;6056927;23;20042;-83
2021/04/28 17:35:43;;;;;;;11.98;5.68;;;;;;;18.41;31.46;95194.59;6056336;23;20381;-83
2021/04/28 17:38:15;;;;;;;8.82;5.38;;;;;;;18.36;31.61;95191.94;6056829;23;20041;-83
2021/04/28 17:40:51;;;;;;;11.88;5.85;;;;;;;18.30;31.58;95193.00;6057297;23;20019;-84
2021/04/28 17:43:29;;;;;;;11.32;4.82;;;;;;;18.27;31.83;95196.19;6057636;23;20038;-86
2021/04/28 17:45:59;;;;;;;9.30;5.40;;;;;;;18.24;31.97;95194.88;6057112;23;20023;-84
2021/04/28 17:48:26;;;;;;;8.50;5.30;;;;;;;18.22;32.01;95193.56;6057127;23;20038;-82
2021/04/28 17:51:03;;;;;;;10.85;5.45;;;;;;;18.18;32.39;95193.28;6056577;23;20011;-83
2021/04/28 17:53:35;;;;;;;10.88;5.65;;;;;;;18.13;32.82;95198.56;6055986;23;20019;-83
2021/04/28 17:56:02;;;;;;;11.82;5.97;;;;;;;18.08;32.89;95201.19;6056900;23;21323;-83
2021/04/28 17:58:34;;;;;;;12.82;6.30;;;;;;;18.03;32.99;95201.97;6059040;23;20042;-84
2021/04/28 18:01:05;;;;;;;10.75;5.82;;;;;;;17.97;33.17;95200.38;6046628;23;20035;-84
2021/04/28 18:03:43;;;;;;;11.27;5.30;;;;;;;17.92;33.66;95200.38;6043489;23;20038;-84
2021/04/28 18:06:26;;;;;;;8.27;5.25;;;;;;;17.86;33.84;95194.31;6053516;23;20405;-85
2021/04/28 18:08:58;;;;;;;7.78;5.38;;;;;;;17.78;34.20;95200.06;6059520;23;20052;-85
2021/04/28 18:11:33;;;;;;;9.43;6.40;;;;;;;17.74;34.72;95195.59;6059804;23;20042;-84
2021/04/28 18:14:04;;;;;;;13.70;6.35;;;;;;;17.69;34.78;95202.44;6059356;23;20092;-84
2021/04/28 18:16:39;;;;;;;13.15;6.32;;;;;;;17.65;34.96;95192.66;6059952;23;20023;-85
2021/04/28 18:19:09;;;;;;;10.55;6.32;;;;;;;17.60;34.97;95197.91;6060136;23;20024;-87
2021/04/28 18:21:43;;;;;;;8.20;6.15;;;;;;;17.57;35.55;95198.44;6059454;23;20019;-86
2021/04/28 18:24:18;;;;;;;8.63;5.70;;;;;;;17.52;35.58;95196.59;6060151;23;20034;-87
2021/04/28 18:26:51;;;;;;;11.52;6.38;;;;;;;17.45;35.80;95196.06;6058430;23;20043;-84
2021/04/28 18:29:23;;;;;;;10.75;6.20;;;;;;;17.39;35.92;95197.09;6056161;23;20023;-86
2021/04/28 18:31:52;;;;;;;10.30;6.32;;;;;;;17.34;36.08;95194.41;6055606;23;20043;-82
2021/04/28 18:34:27;;;;;;;10.32;6.00;;;;;;;17.28;36.33;95190.97;6057803;23;20019;-83
2021/04/28 18:36:54;;;;;;;10.73;6.35;;;;;;;17.24;36.57;95192.53;6054899;23;20079;-80
2021/04/28 18:39:30;;;;;;;12.90;6.88;;;;;;;17.20;36.84;95191.47;6052803;23;20019;-81
2021/04/28 18:42:03;;;;;;;11.73;6.13;;;;;;;17.14;36.98;95190.66;6053331;23;20360;-81
2021/04/28 18:44:34;;;;;;;11.27;6.57;;;;;;;17.09;37.19;95195.91;6054370;23;20401;-85
2021/04/28 18:47:11;;;;;;;12.02;6.78;;;;;;;17.04;37.42;95190.63;6057279;23;20023;-87
2021/04/28 18:49:40;;;;;;;13.13;7.50;;;;;;;16.99;37.74;95190.56;6061767;23;20034;-87
2021/04/28 18:52:11;;;;;;;12.50;6.82;;;;;;;16.92;37.84;95190.03;6063001;23;20074;-85
2021/04/28 18:54:40;;;;;;;10.45;8.18;;;;;;;16.87;38.17;95198.69;6060636;23;20029;-85
2021/04/28 18:57:10;;;;;;;12.20;7.35;;;;;;;16.83;37.85;95195.78;6060663;23;20058;-88
2021/04/28 18:59:44;;;;;;;10.77;7.00;;;;;;;16.81;38.22;95194.44;6060642;23;20020;-85
2021/04/28 19:02:13;;;;;;;9.65;7.10;;;;;;;16.77;38.14;95194.16;6061166;23;20015;-85
2021/04/28 19:04:44;;;;;;;;;;;;;;;16.75;38.01;95193.63;6061180;23;20023;-86
2021/04/28 19:07:16;;;;;;;10.38;7.10;;;;;;;16.70;38.36;95198.81;6060468;23;20351;-84
2021/04/28 19:09:47;;;;;;;12.15;7.97;;;;;;;16.66;38.56;95197.75;6061074;23;20024;-86
2021/04/28 19:12:17;;;;;;;13.95;8.85;;;;;;;16.62;38.82;95192.22;6060811;23;20030;-85
2021/04/28 19:14:50;;;;;;;17.08;10.05;;;;;;;16.59;38.86;95191.91;6061014;23;20023;-83
2021/04/28 19:17:17;;;;;;;20.55;11.73;;;;;;;16.56;38.96;95197.69;6060027;23;20015;-86
2021/04/28 19:19:44;;;;;;;16.10;10.75;;;;;;;16.53;38.85;95192.94;6057831;23;20023;-83
2021/04/28 19:22:16;;;;;;;17.30;10.32;;;;;;;16.48;39.45;95197.09;6057947;23;20023;-80
2021/04/28 19:24:43;;;;;;;15.85;10.52;;;;;;;16.44;39.39;95189.97;6057504;23;20019;-81
2021/04/28 19:27:11;;;;;;;13.23;9.90;;;;;;;16.39;39.59;95198.63;6058946;23;20015;-84
2021/04/28 19:29:38;;;;;;;19.90;10.50;;;;;;;16.36;39.74;95193.88;6059611;23;20106;-82
2021/04/28 19:32:05;;;;;;;14.15;8.68;;;;;;;16.32;39.68;95192.78;6059855;23;20042;-83
2021/04/28 19:34:34;;;;;;;17.20;9.95;;;;;;;16.28;39.83;95192.50;6057957;23;20023;-85
2021/04/28 19:37:01;;;;;;;13.77;8.93;;;;;;;16.26;40.23;95201.69;6060121;23;20019;-83
2021/04/28 19:39:29;;;;;;;15.35;9.38;;;;;;;16.21;40.35;95194.56;6059626;23;20023;-82
2021/04/28 19:41:56;;;;;;;22.05;13.00;;;;;;;16.15;40.45;95200.03;6060226;23;20020;-83
2021/04/28 19:44:24;;;;;;;20.38;14.57;;;;;;;16.11;40.36;95191.84;6061087;23;20030;-84
2021/04/28 19:46:51;;;;;;;33.00;18.52;;;;;;;16.07;40.67;95188.16;6059657;23;20045;-82
2021/04/28 19:49:18;;;;;;;23.98;14.10;;;;;;;16.02;40.48;95194.13;6060286;23;20051;-80
2021/04/28 19:51:48;;;;;;;19.63;12.23;;;;;;;15.99;40.76;95185.97;6059583;23;20074;-81
2021/04/28 19:54:15;;;;;;;15.65;10.98;;;;;;;15.98;40.80;95189.63;6060375;23;20027;-81
2021/04/28 19:56:43;;;;;;;17.35;10.85;;;;;;;15.97;41.00;95185.41;6063008;23;20049;-84
2021/04/28 19:59:10;;;;;;;14.63;9.57;;;;;;;15.98;40.90;95187.81;6065640;23;20004;-86
2021/04/28 20:01:37;;;;;;;15.63;9.05;;;;;;;15.97;41.05;95183.56;6065840;23;20007;-85
2021/04/28 20:04:05;;;;;;;14.02;8.23;;;;;;;15.96;41.24;95179.38;6062424;23;20042;-86
2021/04/28 20:06:32;;;;;;;12.48;8.02;;;;;;;15.96;41.29;95178.56;6064581;23;20015;-87
2021/04/28 20:08:59;;;;;;;16.90;8.57;;;;;;;15.94;41.41;95178.00;6066952;23;20008;-83
2021/04/28 20:11:26;;;;;;;13.98;9.20;;;;;;;15.94;41.43;95178.84;6066110;23;20003;-85
2021/04/28 20:13:52;;;;;;;18.23;8.75;;;;;;;15.95;41.63;95183.03;6065524;23;20469;-85
2021/04/28 20:16:23;;;;;;;13.75;6.88;;;;;;;15.94;41.77;95186.72;6061883;23;20026;-87
2021/04/28 20:18:53;;;;;;;17.67;8.18;;;;;;;15.92;41.71;95175.66;6061798;23;20030;-84
2021/04/28 20:21:20;;;;;;;21.77;7.32;;;;;;;15.93;41.62;95182.50;6061928;23;20030;-86
2021/04/28 20:23:47;;;;;;;13.65;6.95;;;;;;;15.93;41.48;95187.75;6063273;23;20039;-87
2021/04/28 20:26:14;;;;;;;17.30;7.63;;;;;;;15.95;41.68;95190.13;6066650;23;20014;-89
2021/04/28 20:28:51;;;;;;;12.65;6.60;;;;;;;15.93;41.88;95190.38;6064228;23;20019;-89